Time;durP1;ratioP1;P1;durP2;ratioP2;P2;SDS_P1;SDS_P2;PMS_P1;PMS_P2;Temp;Humidity;BMP_temperature;BMP_pressure;BME280_temperature;BME280_humidity;BME280_pressure;Samples;Min_cycle;Max_cycle;Signal;HPM_P1;HPM_P2
2022/03/28 00:01:36;;;;;;;7.83;4.93;;;10.70;99.90;;;;;;4998154;28;20474;-51
2022/03/28 00:04:03;;;;;;;5.20;4.70;;;10.60;99.90;;;;;;4998131;28;20814;-51
2022/03/28 00:06:30;;;;;;;9.93;4.90;;;10.50;99.90;;;;;;4998042;28;20496;-48
2022/03/28 00:08:57;;;;;;;8.43;4.80;;;10.50;99.90;;;;;;4998051;28;20568;-50
2022/03/28 00:11:23;;;;;;;7.90;5.13;;;10.50;99.90;;;;;;4998071;28;20520;-54
2022/03/28 00:13:50;;;;;;;8.00;4.13;;;10.50;99.90;;;;;;4997948;28;20473;-53
2022/03/28 00:16:17;;;;;;;6.67;4.90;;;10.40;99.90;;;;;;4997986;28;20446;-49
2022/03/28 00:18:45;;;;;;;6.80;4.60;;;10.40;99.90;;;;;;4997745;28;20466;-47
2022/03/28 00:21:11;;;;;;;6.10;4.00;;;10.40;99.90;;;;;;4997994;28;20434;-53
2022/03/28 00:23:38;;;;;;;5.17;4.50;;;10.30;99.90;;;;;;4997596;28;20465;-52
2022/03/28 00:26:05;;;;;;;7.63;5.47;;;10.30;99.90;;;;;;4997728;28;20470;-54
2022/03/28 00:28:32;;;;;;;8.07;4.53;;;10.40;99.90;;;;;;4997349;28;20478;-49
2022/03/28 00:30:58;;;;;;;8.07;4.67;;;10.40;99.90;;;;;;4997427;28;20492;-50
2022/03/28 00:33:25;;;;;;;6.37;4.90;;;10.30;99.90;;;;;;4998221;28;20445;-51
2022/03/28 00:35:53;;;;;;;8.10;5.13;;;10.30;99.90;;;;;;4997828;28;20528;-52
2022/03/28 00:38:20;;;;;;;7.57;4.10;;;10.30;99.90;;;;;;4997533;28;20454;-49
2022/03/28 00:40:47;;;;;;;7.10;4.20;;;10.30;99.90;;;;;;4997204;28;20454;-54
2022/03/28 00:43:14;;;;;;;9.83;4.37;;;10.30;99.90;;;;;;4997047;28;20844;-52
2022/03/28 00:45:42;;;;;;;7.13;4.67;;;10.30;99.90;;;;;;4997122;28;20516;-56
2022/03/28 00:48:11;;;;;;;13.93;5.37;;;10.20;99.90;;;;;;4996788;28;20493;-55
2022/03/28 00:50:38;;;;;;;6.00;4.70;;;10.20;99.90;;;;;;4997151;28;20486;-51
2022/03/28 00:53:10;;;;;;;14.33;5.47;;;10.20;99.90;;;;;;4997213;28;20458;-52
2022/03/28 00:55:36;;;;;;;10.33;4.90;;;10.10;99.90;;;;;;4997295;28;20474;-55
2022/03/28 00:58:03;;;;;;;7.53;5.10;;;10.10;99.90;;;;;;4997422;28;20496;-51
2022/03/28 01:00:30;;;;;;;6.20;4.60;;;10.10;99.90;;;;;;4997054;28;20438;-51
2022/03/28 01:02:57;;;;;;;10.67;5.07;;;10.10;99.90;;;;;;4997116;28;20442;-55
2022/03/28 01:05:26;;;;;;;6.00;4.63;;;10.00;99.90;;;;;;4997077;28;20458;-50
2022/03/28 01:07:53;;;;;;;8.10;4.73;;;10.00;99.90;;;;;;4996931;28;20540;-52
2022/03/28 01:10:22;;;;;;;7.97;4.70;;;10.00;99.90;;;;;;4997047;28;20462;-52
2022/03/28 01:12:49;;;;;;;8.37;4.67;;;9.90;99.90;;;;;;4996930;28;20501;-52
2022/03/28 01:15:16;;;;;;;7.17;5.63;;;9.90;99.90;;;;;;4996939;28;20450;-53
2022/03/28 01:20:29;;;;;;;10.30;4.07;;;9.90;99.90;;;;;;4996571;28;20461;-54
2022/03/28 01:22:58;;;;;;;8.30;4.67;;;9.90;99.90;;;;;;4996510;28;20458;-49
2022/03/28 01:25:26;;;;;;;8.27;4.53;;;9.80;99.90;;;;;;4996463;28;21013;-51
2022/03/28 01:27:54;;;;;;;10.00;5.30;;;9.70;99.90;;;;;;4996672;28;20572;-53
2022/03/28 01:30:23;;;;;;;10.03;5.37;;;9.70;99.90;;;;;;4996306;28;20454;-51
2022/03/28 01:32:51;;;;;;;12.57;5.80;;;9.60;99.90;;;;;;4996337;28;20426;-48
2022/03/28 01:35:30;;;;;;;8.50;4.60;;;9.60;99.90;;;;;;4996523;28;20456;-52
2022/03/28 01:37:59;;;;;;;12.17;5.30;;;9.60;99.90;;;;;;4996306;28;20543;-49
2022/03/28 01:40:26;;;;;;;7.10;4.77;;;9.60;99.90;;;;;;4996314;28;20446;-52
2022/03/28 01:42:53;;;;;;;14.73;3.77;;;9.60;99.90;;;;;;4997395;28;20470;-53
2022/03/28 01:45:19;;;;;;;8.93;4.57;;;9.60;99.90;;;;;;4997216;28;20446;-49
2022/03/28 01:47:46;;;;;;;6.20;4.40;;;9.60;99.90;;;;;;4996271;28;20486;-52
2022/03/28 01:50:14;;;;;;;11.43;4.63;;;9.60;99.90;;;;;;4995912;28;20489;-50
2022/03/28 01:52:40;;;;;;;8.10;5.00;;;9.50;99.90;;;;;;4996188;28;20450;-52
2022/03/28 01:55:10;;;;;;;7.87;4.80;;;9.50;99.90;;;;;;4996100;28;20477;-49
2022/03/28 01:57:37;;;;;;;8.57;4.87;;;9.40;99.90;;;;;;4996089;28;20441;-50
2022/03/28 02:00:06;;;;;;;7.87;4.40;;;9.30;99.90;;;;;;4994850;28;20525;-50
2022/03/28 02:02:33;;;;;;;7.40;4.03;;;9.40;99.90;;;;;;4996110;28;20452;-52
2022/03/28 02:04:59;;;;;;;7.10;4.20;;;9.40;99.90;;;;;;4995960;28;20442;-52
2022/03/28 02:07:26;;;;;;;7.03;4.50;;;9.40;99.90;;;;;;4995784;28;20478;-50
2022/03/28 02:09:53;;;;;;;13.00;5.10;;;9.40;99.90;;;;;;4995800;28;20543;-52
2022/03/28 02:12:21;;;;;;;6.63;4.07;;;9.40;99.90;;;;;;4995923;28;20540;-54
2022/03/28 02:14:48;;;;;;;9.73;5.13;;;9.30;99.90;;;;;;4995917;28;20816;-53
2022/03/28 02:17:15;;;;;;;7.37;3.97;;;9.30;99.90;;;;;;4995842;28;20466;-51
2022/03/28 02:19:42;;;;;;;6.10;4.33;;;9.30;99.90;;;;;;4995622;28;20446;-51
2022/03/28 02:22:09;;;;;;;9.50;4.50;;;9.30;99.90;;;;;;4995659;28;20485;-48
2022/03/28 02:24:36;;;;;;;6.97;4.00;;;9.40;99.90;;;;;;4995217;28;20581;-48
2022/03/28 02:27:02;;;;;;;9.60;5.57;;;9.40;99.90;;;;;;4995467;28;20508;-52
2022/03/28 02:29:30;;;;;;;10.43;4.20;;;9.40;99.90;;;;;;4995865;28;20478;-51
2022/03/28 02:31:57;;;;;;;6.10;3.47;;;9.40;99.90;;;;;;4995595;28;20449;-57
2022/03/28 02:34:24;;;;;;;10.00;5.00;;;9.40;99.90;;;;;;4995596;28;20544;-48
2022/03/28 02:36:50;;;;;;;10.00;5.73;;;9.40;99.90;;;;;;4995474;28;20490;-54
2022/03/28 02:39:17;;;;;;;7.97;4.53;;;9.40;99.90;;;;;;4995418;28;20496;-49
2022/03/28 02:41:44;;;;;;;6.70;4.07;;;9.30;99.90;;;;;;4995054;28;20846;-50
2022/03/28 02:44:10;;;;;;;9.20;5.27;;;9.30;99.90;;;;;;4995135;28;20473;-49
2022/03/28 02:46:41;;;;;;;7.20;4.60;;;9.30;99.90;;;;;;4995200;28;20462;-52
2022/03/28 02:49:09;;;;;;;10.60;5.60;;;9.30;99.90;;;;;;4995411;28;20958;-53
2022/03/28 02:51:36;;;;;;;10.73;4.90;;;9.20;99.90;;;;;;4995297;28;20469;-54
2022/03/28 02:54:03;;;;;;;8.57;4.83;;;9.20;99.90;;;;;;4995125;28;20823;-48
2022/03/28 02:56:29;;;;;;;11.33;5.63;;;9.20;99.90;;;;;;4995459;28;20457;-52
2022/03/28 02:58:56;;;;;;;8.30;5.40;;;9.20;99.90;;;;;;4995265;28;20922;-51
2022/03/28 03:01:23;;;;;;;12.27;5.17;;;9.10;99.90;;;;;;4996456;28;20477;-47
2022/03/28 03:03:51;;;;;;;10.00;5.20;;;9.10;99.90;;;;;;4995945;28;20453;-58
2022/03/28 03:06:18;;;;;;;12.83;5.27;;;9.10;99.90;;;;;;4995084;28;20528;-54
2022/03/28 03:08:44;;;;;;;11.20;5.07;;;9.10;99.90;;;;;;4995124;28;20501;-52
2022/03/28 03:11:11;;;;;;;13.13;5.47;;;9.00;99.90;;;;;;4997821;28;20481;-57
2022/03/28 03:13:41;;;;;;;11.03;4.53;;;9.00;99.90;;;;;;4998890;28;20923;-52
2022/03/28 03:16:08;;;;;;;12.10;4.90;;;8.90;99.90;;;;;;4999130;28;20458;-53
2022/03/28 03:18:34;;;;;;;8.63;4.17;;;8.90;99.90;;;;;;4999033;28;20473;-47
2022/03/28 03:21:02;;;;;;;6.77;4.17;;;8.90;99.90;;;;;;4999144;28;20791;-50
2022/03/28 03:23:29;;;;;;;8.33;4.70;;;8.80;99.90;;;;;;4998755;28;20453;-50
2022/03/28 03:25:56;;;;;;;14.53;6.33;;;8.80;99.90;;;;;;4998848;28;20466;-48
2022/03/28 03:28:23;;;;;;;8.53;4.87;;;8.70;99.90;;;;;;4998775;28;20481;-51
2022/03/28 03:30:49;;;;;;;9.77;4.67;;;8.70;99.90;;;;;;4998813;28;20535;-51
2022/03/28 03:33:16;;;;;;;6.57;4.60;;;8.60;99.90;;;;;;4998816;28;20520;-51
2022/03/28 03:35:43;;;;;;;9.97;5.20;;;8.60;99.90;;;;;;4998766;28;20454;-51
2022/03/28 03:38:11;;;;;;;6.30;4.37;;;8.50;99.90;;;;;;4998738;28;20441;-50
2022/03/28 03:40:37;;;;;;;12.33;5.40;;;8.40;99.90;;;;;;4998777;28;20457;-50
2022/03/28 03:43:04;;;;;;;8.00;4.40;;;8.40;99.90;;;;;;4998708;28;20469;-53
2022/03/28 03:45:31;;;;;;;10.73;5.90;;;8.40;99.90;;;;;;4998781;28;20438;-50
2022/03/28 03:47:58;;;;;;;9.50;4.57;;;8.40;99.90;;;;;;4998051;28;20501;-49
2022/03/28 03:50:25;;;;;;;11.40;5.80;;;8.30;99.90;;;;;;4998590;28;20462;-51
2022/03/28 03:52:51;;;;;;;6.90;4.90;;;8.30;99.90;;;;;;4998570;28;20453;-51
2022/03/28 03:55:20;;;;;;;12.63;4.63;;;8.30;99.90;;;;;;4998816;28;20453;-52
2022/03/28 03:57:47;;;;;;;11.50;4.77;;;8.30;99.90;;;;;;4998368;28;20466;-52
2022/03/28 04:00:15;;;;;;;9.63;5.47;;;8.30;99.90;;;;;;4998092;28;20524;-55
2022/03/28 04:02:41;;;;;;;7.93;4.37;;;8.30;99.90;;;;;;4998032;28;20477;-50
2022/03/28 04:05:09;;;;;;;14.30;5.87;;;8.30;99.90;;;;;;4998144;28;20539;-51
2022/03/28 04:07:35;;;;;;;10.47;6.03;;;8.30;99.90;;;;;;4998274;28;20458;-50
2022/03/28 04:10:03;;;;;;;6.90;4.60;;;8.20;99.90;;;;;;4997605;28;20795;-53
2022/03/28 04:12:31;;;;;;;7.73;4.87;;;8.20;99.90;;;;;;4998123;28;20450;-47
2022/03/28 04:15:00;;;;;;;9.63;5.60;;;8.20;99.90;;;;;;4997968;28;20488;-51
2022/03/28 04:17:28;;;;;;;16.07;6.07;;;8.20;99.90;;;;;;4997776;28;20438;-52
2022/03/28 04:19:55;;;;;;;11.30;6.13;;;8.20;99.90;;;;;;4997566;28;20462;-53
2022/03/28 04:22:22;;;;;;;6.03;4.30;;;8.10;99.90;;;;;;4996913;28;20426;-51
2022/03/28 04:24:49;;;;;;;12.33;5.00;;;8.10;99.90;;;;;;4997428;28;20453;-49
2022/03/28 04:27:16;;;;;;;11.23;6.97;;;8.00;99.90;;;;;;4997797;28;20446;-48
2022/03/28 04:29:44;;;;;;;6.27;4.57;;;8.00;99.90;;;;;;4997666;28;20489;-52
2022/03/28 04:32:12;;;;;;;6.90;5.00;;;7.90;99.90;;;;;;4997764;28;20767;-53
2022/03/28 04:34:40;;;;;;;12.10;6.03;;;8.40;99.90;;;;;;4997468;28;20445;-51
2022/03/28 04:37:06;;;;;;;9.10;5.80;;;8.00;99.90;;;;;;4997515;28;20799;-51
2022/03/28 04:39:33;;;;;;;9.67;6.53;;;8.00;99.90;;;;;;4997591;28;20469;-50
2022/03/28 04:42:00;;;;;;;8.10;5.27;;;8.00;99.90;;;;;;4998333;28;20462;-56
2022/03/28 04:44:26;;;;;;;9.00;5.13;;;8.00;99.90;;;;;;4998082;28;20453;-49
2022/03/28 04:46:54;;;;;;;11.17;5.07;;;8.00;99.90;;;;;;5014081;28;20462;-49
2022/03/28 04:49:21;;;;;;;7.60;5.33;;;8.00;99.90;;;;;;5016946;28;20481;-57
2022/03/28 04:51:48;;;;;;;13.07;5.33;;;8.00;99.90;;;;;;5017208;28;20469;-56
2022/03/28 04:54:15;;;;;;;9.13;5.23;;;8.00;99.90;;;;;;5017226;28;20449;-52
2022/03/28 04:56:43;;;;;;;11.33;6.33;;;8.00;99.90;;;;;;5017087;28;20469;-51
2022/03/28 04:59:11;;;;;;;10.37;4.63;;;8.00;99.90;;;;;;5017166;28;20822;-52
2022/03/28 05:01:37;;;;;;;9.90;6.17;;;7.90;99.90;;;;;;5016782;28;20468;-52
2022/03/28 05:04:06;;;;;;;10.90;4.80;;;7.90;99.90;;;;;;5016717;28;20469;-54
2022/03/28 05:06:32;;;;;;;6.70;4.13;;;7.90;99.90;;;;;;5016342;28;20469;-51
2022/03/28 05:08:59;;;;;;;14.17;5.10;;;7.90;99.90;;;;;;5016538;28;20481;-51
2022/03/28 05:11:26;;;;;;;9.13;4.40;;;8.00;99.90;;;;;;5016644;28;20542;-53
2022/03/28 05:13:53;;;;;;;15.17;5.23;;;7.90;99.90;;;;;;5016587;28;20527;-58
2022/03/28 05:16:20;;;;;;;9.90;5.43;;;7.90;99.90;;;;;;5026466;28;20496;-51
2022/03/28 05:18:46;;;;;;;7.67;4.87;;;8.00;99.90;;;;;;5032703;28;20441;-47
2022/03/28 05:21:14;;;;;;;7.23;4.93;;;8.00;99.90;;;;;;5032326;28;20469;-50
2022/03/28 05:23:41;;;;;;;13.20;3.90;;;8.00;99.90;;;;;;5026370;28;20449;-49
2022/03/28 05:26:07;;;;;;;14.27;5.57;;;8.00;99.90;;;;;;5025370;28;20600;-53
2022/03/28 05:28:34;;;;;;;12.17;5.80;;;8.10;99.90;;;;;;5033542;28;20465;-35
2022/03/28 05:31:04;;;;;;;14.33;5.87;;;8.10;99.90;;;;;;5039709;28;20423;-41
2022/03/28 05:33:31;;;;;;;12.03;5.23;;;8.10;99.90;;;;;;5039739;28;20413;-39
2022/03/28 05:35:59;;;;;;;10.43;6.30;;;8.10;99.90;;;;;;5039627;28;20417;-39
2022/03/28 05:38:27;;;;;;;12.30;6.13;;;8.20;99.90;;;;;;5039633;28;20452;-37
2022/03/28 05:40:55;;;;;;;9.17;6.17;;;8.20;99.90;;;;;;5039406;28;20448;-38
2022/03/28 05:43:21;;;;;;;11.70;4.90;;;8.20;99.90;;;;;;5036948;28;20560;-56
2022/03/28 05:45:48;;;;;;;10.23;5.13;;;8.20;99.90;;;;;;5036804;28;20460;-45
2022/03/28 05:48:15;;;;;;;8.77;5.10;;;8.20;99.90;;;;;;5036865;28;20449;-51
2022/03/28 05:50:42;;;;;;;9.63;6.10;;;8.20;99.90;;;;;;5036626;28;20472;-44
2022/03/28 05:53:09;;;;;;;12.97;6.00;;;8.20;99.90;;;;;;5036919;28;20450;-51
2022/03/28 05:55:37;;;;;;;11.57;6.67;;;8.20;99.90;;;;;;5036449;28;20442;-52
2022/03/28 05:58:04;;;;;;;10.67;5.53;;;8.20;99.90;;;;;;5036777;28;20437;-49
2022/03/28 06:00:30;;;;;;;10.00;5.43;;;8.30;99.90;;;;;;5036083;28;20452;-49
2022/03/28 06:02:57;;;;;;;9.10;5.47;;;8.20;99.90;;;;;;5036190;28;20473;-53
2022/03/28 06:05:24;;;;;;;8.67;6.73;;;8.30;99.90;;;;;;5036357;28;20448;-52
2022/03/28 06:07:51;;;;;;;10.93;5.27;;;8.20;99.90;;;;;;5036417;28;20469;-54
2022/03/28 06:10:17;;;;;;;9.80;6.27;;;8.20;99.90;;;;;;5036384;28;20516;-50
2022/03/28 06:12:45;;;;;;;13.17;7.03;;;8.30;99.90;;;;;;5035556;28;20484;-48
2022/03/28 06:15:18;;;;;;;13.37;6.33;;;8.30;99.90;;;;;;5035454;28;20437;-52
2022/03/28 06:17:46;;;;;;;10.10;5.10;;;8.30;99.90;;;;;;5036073;28;20465;-51
2022/03/28 06:20:13;;;;;;;16.10;5.27;;;8.40;99.90;;;;;;5036168;28;20476;-53
2022/03/28 06:22:40;;;;;;;9.67;5.40;;;8.40;99.90;;;;;;5029939;28;20522;-52
2022/03/28 06:25:08;;;;;;;16.23;5.83;;;8.50;99.90;;;;;;5022335;28;20453;-48
2022/03/28 06:27:40;;;;;;;14.10;5.43;;;8.50;99.90;;;;;;5027302;28;20492;-52
2022/03/28 06:30:11;;;;;;;14.17;7.10;;;8.50;99.90;;;;;;5035275;28;20841;-52
2022/03/28 06:32:41;;;;;;;18.10;7.03;;;8.60;99.90;;;;;;5035688;28;20473;-48
2022/03/28 06:35:09;;;;;;;8.90;5.77;;;8.70;99.90;;;;;;5035477;28;20457;-43
2022/03/28 06:37:36;;;;;;;9.80;6.87;;;8.80;99.90;;;;;;5035214;28;20479;-50
2022/03/28 06:40:04;;;;;;;15.33;6.50;;;8.90;99.90;;;;;;5035308;28;20485;-50
2022/03/28 06:42:34;;;;;;;11.73;5.90;;;8.90;99.90;;;;;;5035047;28;20492;-52
2022/03/28 06:45:01;;;;;;;9.77;5.57;;;9.00;99.90;;;;;;5034812;28;20515;-50
2022/03/28 06:47:29;;;;;;;11.17;5.73;;;9.10;99.90;;;;;;5035013;28;20524;-53
2022/03/28 06:49:56;;;;;;;8.93;5.40;;;9.10;99.90;;;;;;5035347;28;20494;-51
2022/03/28 06:52:26;;;;;;;10.53;6.43;;;9.20;99.90;;;;;;5035298;28;20590;-46
2022/03/28 06:54:53;;;;;;;13.50;7.00;;;9.20;99.90;;;;;;5035535;28;20695;-51
2022/03/28 06:57:20;;;;;;;17.40;6.10;;;9.20;99.90;;;;;;5035827;28;20433;-50
2022/03/28 06:59:50;;;;;;;11.20;5.33;;;9.30;99.90;;;;;;5035198;28;20456;-54
2022/03/28 07:02:19;;;;;;;16.20;6.27;;;9.30;99.90;;;;;;5035839;28;20508;-50
2022/03/28 07:04:47;;;;;;;21.13;5.77;;;9.30;99.90;;;;;;5036088;28;20456;-49
2022/03/28 07:07:14;;;;;;;13.83;5.73;;;9.40;99.90;;;;;;5036165;28;20468;-54
2022/03/28 07:09:41;;;;;;;15.60;6.67;;;9.40;99.90;;;;;;5035671;28;20481;-50
2022/03/28 07:12:09;;;;;;;11.80;6.20;;;9.50;99.90;;;;;;5035889;28;20452;-51
2022/03/28 07:14:36;;;;;;;16.90;5.93;;;9.60;99.90;;;;;;5035365;28;20487;-53
2022/03/28 07:17:05;;;;;;;14.43;6.00;;;9.60;99.90;;;;;;5036128;28;20441;-51
2022/03/28 07:19:39;;;;;;;14.03;6.10;;;9.70;99.90;;;;;;5035613;28;20471;-49
2022/03/28 07:22:07;;;;;;;15.83;6.47;;;9.70;99.90;;;;;;5035471;28;20426;-45
2022/03/28 07:24:34;;;;;;;9.03;6.10;;;9.80;99.90;;;;;;5034931;28;20437;-51
2022/03/28 07:27:01;;;;;;;14.23;7.30;;;9.90;99.90;;;;;;5035163;28;20455;-58
2022/03/28 07:29:32;;;;;;;9.97;5.80;;;9.90;99.90;;;;;;5034885;28;20575;-49
2022/03/28 07:31:59;;;;;;;10.63;6.00;;;10.00;99.90;;;;;;5035264;28;20437;-45
2022/03/28 07:34:32;;;;;;;9.20;5.20;;;10.10;99.90;;;;;;5035289;28;20465;-46
2022/03/28 07:37:02;;;;;;;9.93;5.30;;;10.10;99.90;;;;;;5035280;28;20445;-45
2022/03/28 07:39:31;;;;;;;10.97;5.33;;;10.10;99.90;;;;;;5035578;28;20533;-51
2022/03/28 07:41:58;;;;;;;8.73;4.53;;;10.10;99.90;;;;;;5035320;28;20441;-47
2022/03/28 07:44:25;;;;;;;12.50;5.30;;;10.20;99.90;;;;;;5034993;28;20507;-46
2022/03/28 07:46:52;;;;;;;9.43;5.40;;;10.20;99.90;;;;;;5035060;28;20441;-49
2022/03/28 07:49:23;;;;;;;10.27;4.53;;;10.30;99.90;;;;;;5035463;28;20496;-47
2022/03/28 07:51:50;;;;;;;7.27;4.27;;;10.30;99.90;;;;;;5035984;28;20425;-48
2022/03/28 07:54:17;;;;;;;11.73;5.00;;;10.40;99.90;;;;;;5035153;28;20469;-51
2022/03/28 07:56:46;;;;;;;8.07;3.97;;;10.50;99.90;;;;;;5035753;28;20429;-49
2022/03/28 07:59:15;;;;;;;8.20;5.60;;;10.50;99.90;;;;;;5038943;28;20455;-42
2022/03/28 08:01:42;;;;;;;9.43;4.90;;;10.70;99.90;;;;;;5038568;28;20437;-52
2022/03/28 08:04:09;;;;;;;9.87;4.30;;;10.70;99.90;;;;;;5031546;28;20448;-54
2022/03/28 08:06:36;;;;;;;8.10;4.77;;;10.80;99.90;;;;;;5032302;28;20476;-49
2022/03/28 08:09:04;;;;;;;9.60;5.00;;;10.90;99.90;;;;;;5030961;28;20461;-52
2022/03/28 08:11:31;;;;;;;9.43;4.53;;;11.00;99.90;;;;;;5030397;28;20512;-52
2022/03/28 08:14:00;;;;;;;6.57;4.10;;;11.00;99.90;;;;;;5030971;28;20483;-54
2022/03/28 08:16:27;;;;;;;6.13;3.80;;;11.10;99.90;;;;;;5030620;28;20497;-50
2022/03/28 08:18:54;;;;;;;8.70;3.73;;;11.10;99.90;;;;;;5031140;28;20819;-51
2022/03/28 08:21:21;;;;;;;9.80;4.47;;;11.20;99.90;;;;;;5030740;28;20457;-49
2022/03/28 08:23:48;;;;;;;8.00;3.83;;;11.40;99.90;;;;;;5028861;28;20452;-51
2022/03/28 08:26:14;;;;;;;7.63;3.93;;;12.50;99.90;;;;;;5026536;28;20479;-53
2022/03/28 08:28:42;;;;;;;12.43;4.00;;;14.10;99.90;;;;;;5024914;28;20507;-50
2022/03/28 08:31:12;;;;;;;6.50;5.03;;;15.30;99.90;;;;;;5023662;28;20503;-53
2022/03/28 08:33:39;;;;;;;6.13;3.90;;;17.00;99.90;;;;;;5022006;28;20473;-54
2022/03/28 08:36:06;;;;;;;7.00;4.30;;;18.10;97.00;;;;;;5021715;28;20485;-54
2022/03/28 08:38:35;;;;;;;5.83;3.70;;;18.90;92.60;;;;;;5022477;28;20472;-50
2022/03/28 08:41:02;;;;;;;5.73;3.30;;;19.30;89.30;;;;;;5021823;28;20473;-55
2022/03/28 08:43:29;;;;;;;6.80;4.33;;;20.10;84.40;;;;;;5021441;28;20465;-54
2022/03/28 08:46:00;;;;;;;6.73;4.20;;;21.00;80.30;;;;;;5020947;28;20511;-53
2022/03/28 08:48:33;;;;;;;6.70;4.50;;;22.10;73.40;;;;;;5021191;28;20421;-51
2022/03/28 08:51:00;;;;;;;4.70;3.20;;;22.70;69.20;;;;;;5020376;28;20492;-51
2022/03/28 08:53:27;;;;;;;5.83;3.60;;;23.10;63.80;;;;;;5020924;28;20861;-53
2022/03/28 08:55:54;;;;;;;6.90;4.17;;;23.20;61.10;;;;;;5020140;28;20476;-53
2022/03/28 08:58:20;;;;;;;11.23;4.57;;;23.10;60.60;;;;;;5020489;28;20441;-56
2022/03/28 09:00:48;;;;;;;6.43;4.17;;;23.20;59.30;;;;;;5019970;28;20763;-48
2022/03/28 09:03:15;;;;;;;6.33;3.83;;;23.10;59.10;;;;;;5020889;28;20500;-54
2022/03/28 09:05:49;;;;;;;9.27;4.47;;;23.30;58.70;;;;;;5020344;28;20480;-52
2022/03/28 09:08:16;;;;;;;10.40;4.37;;;23.50;57.40;;;;;;5020467;28;20453;-52
2022/03/28 09:10:47;;;;;;;7.30;4.10;;;22.80;57.80;;;;;;5020600;28;20495;-50
2022/03/28 09:13:18;;;;;;;6.60;3.93;;;23.20;57.40;;;;;;5021152;28;20444;-49
2022/03/28 09:15:48;;;;;;;5.63;4.10;;;23.80;56.50;;;;;;5021200;28;20453;-50
2022/03/28 09:18:24;;;;;;;4.20;3.50;;;23.80;55.70;;;;;;5021124;28;20551;-53
2022/03/28 09:20:54;;;;;;;7.30;3.27;;;23.90;54.60;;;;;;5020571;28;20440;-52
2022/03/28 09:23:44;;;;;;;5.90;3.50;;;24.00;53.50;;;;;;5020110;28;20507;-51
2022/03/28 09:26:14;;;;;;;5.47;3.50;;;24.00;53.60;;;;;;5019480;28;20473;-49
2022/03/28 09:28:46;;;;;;;4.20;3.20;;;23.80;51.60;;;;;;5020567;28;20539;-54
2022/03/28 09:31:20;;;;;;;5.90;3.60;;;23.80;51.60;;;;;;5020239;28;20899;-50
2022/03/28 09:33:57;;;;;;;6.60;3.50;;;23.90;51.40;;;;;;5020133;28;20793;-53
2022/03/28 09:36:55;;;;;;;5.10;3.57;;;24.40;50.90;;;;;;5019650;28;20441;-52
2022/03/28 09:39:23;;;;;;;5.57;3.67;;;24.50;50.80;;;;;;5019563;28;20805;-53
2022/03/28 09:42:01;;;;;;;8.33;5.03;;;24.10;51.20;;;;;;5016788;28;20949;-56
2022/03/28 09:44:36;;;;;;;8.93;4.50;;;23.10;51.60;;;;;;5016108;28;20436;-53
2022/03/28 09:47:11;;;;;;;6.40;3.53;;;23.00;53.00;;;;;;5015783;28;20436;-52
2022/03/28 09:49:38;;;;;;;9.87;4.83;;;23.50;52.70;;;;;;5015475;28;20464;-53
2022/03/28 09:52:11;;;;;;;10.27;3.93;;;24.20;51.60;;;;;;5015740;28;20479;-52
2022/03/28 09:54:45;;;;;;;5.00;3.57;;;24.60;51.00;;;;;;5015802;28;20429;-52
2022/03/28 09:57:14;;;;;;;3.83;2.80;;;25.00;50.30;;;;;;5016557;28;20536;-53
2022/03/28 09:59:42;;;;;;;5.20;3.43;;;24.90;47.50;;;;;;5015702;28;20452;-53
2022/03/28 10:02:21;;;;;;;4.30;3.37;;;24.90;47.50;;;;;;5015408;28;20473;-54
2022/03/28 10:04:49;;;;;;;6.10;3.90;;;24.60;47.80;;;;;;5015588;28;20429;-52
2022/03/28 10:07:18;;;;;;;6.97;3.80;;;24.50;47.90;;;;;;5015512;28;20508;-52
2022/03/28 10:09:45;;;;;;;3.73;2.80;;;24.20;47.60;;;;;;5015538;28;20487;-57
2022/03/28 10:12:12;;;;;;;7.47;4.00;;;23.50;47.70;;;;;;5016486;28;20503;-54
2022/03/28 10:14:39;;;;;;;4.00;3.30;;;23.30;48.80;;;;;;5016507;28;20456;-52
2022/03/28 10:17:07;;;;;;;6.23;3.50;;;23.60;48.90;;;;;;5015486;28;20495;-52
2022/03/28 10:19:37;;;;;;;6.17;3.20;;;24.00;49.20;;;;;;5014582;28;20488;-52
2022/03/28 10:22:08;;;;;;;8.70;3.90;;;23.90;48.50;;;;;;5015177;28;20531;-52
2022/03/28 10:24:37;;;;;;;4.70;3.00;;;23.90;48.90;;;;;;5015546;28;20818;-53
2022/03/28 10:27:05;;;;;;;4.87;3.40;;;23.90;48.50;;;;;;5015555;28;20522;-51
2022/03/28 10:29:37;;;;;;;5.00;3.73;;;23.60;49.10;;;;;;5015118;28;20538;-49
2022/03/28 10:32:08;;;;;;;4.47;3.53;;;23.60;49.60;;;;;;5015093;28;20511;-53
2022/03/28 10:34:47;;;;;;;5.00;3.30;;;23.40;50.30;;;;;;5015108;28;20535;-55
2022/03/28 10:37:32;;;;;;;5.90;3.83;;;23.50;51.40;;;;;;5015729;28;20455;-54
2022/03/28 10:40:23;;;;;;;9.40;3.67;;;23.70;51.30;;;;;;5015558;28;20475;-55
2022/03/28 10:42:52;;;;;;;4.77;3.47;;;23.70;50.50;;;;;;5015374;28;20491;-56
2022/03/28 10:45:21;;;;;;;5.50;3.90;;;23.50;50.70;;;;;;5015213;28;20484;-54
2022/03/28 10:47:51;;;;;;;9.63;4.40;;;23.10;51.30;;;;;;5015387;28;20461;-53
2022/03/28 10:50:21;;;;;;;6.20;3.97;;;23.20;52.10;;;;;;5015275;28;20485;-54
2022/03/28 10:53:14;;;;;;;5.77;3.97;;;23.20;51.80;;;;;;5015330;28;20472;-55
2022/03/28 10:55:49;;;;;;;6.30;3.37;;;22.90;51.70;;;;;;5014973;28;20500;-57
2022/03/28 10:58:20;;;;;;;7.23;3.70;;;22.60;52.50;;;;;;5017278;28;20510;-55
2022/03/28 11:01:29;;;;;;;5.13;3.73;;;22.40;52.90;;;;;;5019340;28;20445;-52
2022/03/28 11:04:00;;;;;;;6.43;3.70;;;22.20;53.40;;;;;;5018292;28;20538;-54
2022/03/28 11:06:52;;;;;;;8.10;3.33;;;22.10;53.10;;;;;;5018672;28;20438;-53
2022/03/28 11:09:47;;;;;;;5.43;3.23;;;21.60;53.70;;;;;;5017878;28;20449;-55
2022/03/28 11:12:20;;;;;;;5.20;3.67;;;21.20;54.70;;;;;;5018642;28;20473;-55
2022/03/28 11:14:55;;;;;;;5.30;3.00;;;20.70;56.10;;;;;;5018693;28;20433;-53
2022/03/28 11:17:24;;;;;;;5.07;3.40;;;20.20;56.30;;;;;;5018527;28;20527;-53
2022/03/28 11:19:58;;;;;;;4.40;2.83;;;19.90;57.00;;;;;;5019416;28;20525;-52
2022/03/28 11:22:49;;;;;;;4.50;2.73;;;19.60;57.20;;;;;;5020173;28;20444;-53
2022/03/28 11:25:47;;;;;;;4.97;2.90;;;19.40;58.40;;;;;;5020648;28;20484;-54
2022/03/28 11:28:17;;;;;;;5.53;2.37;;;19.40;58.90;;;;;;5020488;28;20460;-57
2022/03/28 11:30:55;;;;;;;7.00;2.57;;;19.20;59.30;;;;;;5019745;28;20488;-52
2022/03/28 11:33:30;;;;;;;3.93;2.20;;;19.10;59.60;;;;;;5023782;28;20429;-55
2022/03/28 11:36:02;;;;;;;2.97;2.03;;;18.90;60.30;;;;;;5023431;28;20495;-55
2022/03/28 11:38:31;;;;;;;4.70;2.00;;;18.80;61.00;;;;;;5023916;28;20433;-55
2022/03/28 11:40:59;;;;;;;3.00;1.70;;;18.50;60.10;;;;;;5023407;28;20473;-51
2022/03/28 11:43:32;;;;;;;2.23;1.50;;;18.40;60.50;;;;;;5024183;28;20448;-54
2022/03/28 11:46:00;;;;;;;4.40;2.30;;;18.20;61.10;;;;;;5023646;28;20473;-52
2022/03/28 11:48:27;;;;;;;2.53;1.50;;;18.10;61.30;;;;;;5023387;28;20460;-55
2022/03/28 11:50:55;;;;;;;3.17;2.00;;;18.00;61.50;;;;;;5023388;28;20480;-53
2022/03/28 11:53:22;;;;;;;6.80;1.57;;;17.90;62.00;;;;;;5023549;28;20471;-53
2022/03/28 11:55:51;;;;;;;1.97;1.20;;;18.00;61.90;;;;;;5023633;28;20460;-54
2022/03/28 11:58:19;;;;;;;1.87;1.17;;;17.90;61.20;;;;;;5023248;28;20459;-53
2022/03/28 12:00:49;;;;;;;2.60;1.80;;;17.80;61.20;;;;;;5023277;28;20498;-52
2022/03/28 12:03:18;;;;;;;2.33;1.97;;;17.50;61.50;;;;;;5024267;28;20854;-53
2022/03/28 12:05:46;;;;;;;4.60;1.90;;;17.40;62.30;;;;;;5023560;28;20521;-55
2022/03/28 12:08:14;;;;;;;3.63;1.70;;;17.40;62.60;;;;;;5023934;28;20458;-55
2022/03/28 12:10:43;;;;;;;4.53;2.00;;;17.50;62.60;;;;;;5023077;28;20469;-53
2022/03/28 12:13:11;;;;;;;3.03;1.70;;;17.50;63.20;;;;;;5023404;28;20480;-56
2022/03/28 12:15:43;;;;;;;12.07;8.33;;;17.40;62.40;;;;;;5023740;28;20491;-55
2022/03/28 12:18:12;;;;;;;4.40;1.87;;;17.30;63.40;;;;;;5024162;28;20499;-54
2022/03/28 12:20:42;;;;;;;5.50;2.00;;;17.30;62.50;;;;;;5005058;28;20449;-53
2022/03/28 12:23:10;;;;;;;2.73;1.67;;;17.20;62.60;;;;;;5004733;28;20473;-57
2022/03/28 12:25:39;;;;;;;3.07;1.80;;;17.30;62.70;;;;;;5004203;28;20469;-53
2022/03/28 12:28:08;;;;;;;6.60;1.60;;;17.40;62.80;;;;;;5010564;28;20476;-52
2022/03/28 12:30:38;;;;;;;3.60;1.20;;;17.50;59.80;;;;;;5022799;28;20778;-53
2022/03/28 12:33:15;;;;;;;2.27;1.33;;;17.50;60.00;;;;;;5022626;28;20559;-55
2022/03/28 12:35:44;;;;;;;2.60;1.60;;;17.50;60.60;;;;;;5022923;28;20500;-54
2022/03/28 12:38:16;;;;;;;1.40;1.17;;;17.40;62.00;;;;;;5023242;28;20472;-54
2022/03/28 12:40:46;;;;;;;3.53;1.43;;;17.40;62.60;;;;;;5023145;28;20479;-53
2022/03/28 12:43:14;;;;;;;3.40;1.70;;;17.30;62.20;;;;;;5022679;28;20898;-54
2022/03/28 12:45:43;;;;;;;2.30;1.50;;;17.30;63.20;;;;;;5022946;28;20457;-55
2022/03/28 12:48:11;;;;;;;5.47;3.03;;;17.30;62.90;;;;;;5023269;28;20525;-51
2022/03/28 12:50:51;;;;;;;3.57;1.63;;;17.20;62.60;;;;;;5023002;28;20453;-53
2022/03/28 12:53:23;;;;;;;2.93;1.70;;;17.30;62.60;;;;;;5023312;28;20544;-51
2022/03/28 12:55:52;;;;;;;3.57;1.70;;;17.40;62.60;;;;;;5004846;28;20434;-51
2022/03/28 12:58:32;;;;;;;2.07;1.40;;;17.50;63.90;;;;;;5005041;28;20456;-55
2022/03/28 13:01:04;;;;;;;3.37;2.17;;;17.60;63.20;;;;;;5004549;28;20430;-52